createdAt,value
2022-10-13T00:00:35.974Z,69.90
2022-10-13T00:03:15.151Z,69.86
2022-10-13T00:06:18.908Z,70.23
2022-10-13T00:09:14.956Z,70.23
2022-10-13T00:11:46.191Z,70.41
2022-10-13T00:14:13.317Z,70.25
2022-10-13T00:16:43.797Z,70.19
2022-10-13T00:19:24.363Z,70.14
2022-10-13T00:21:56.954Z,70.07
2022-10-13T00:24:27.050Z,70.20
2022-10-13T00:26:53.980Z,70.17
2022-10-13T00:29:24.960Z,70.38
2022-10-13T00:32:00.185Z,70.55
2022-10-13T00:34:37.249Z,70.29
2022-10-13T00:37:09.426Z,70.56
2022-10-13T00:39:37.590Z,70.76
2022-10-13T00:42:13.012Z,70.44
2022-10-13T00:45:06.172Z,70.82
2022-10-13T00:47:48.547Z,70.96
2022-10-13T00:50:30.142Z,71.09
2022-10-13T00:53:06.072Z,71.19
2022-10-13T00:55:35.477Z,70.96
2022-10-13T00:58:08.005Z,70.95
2022-10-13T01:00:38.280Z,71.01
2022-10-13T01:03:17.848Z,70.78
2022-10-13T01:05:59.324Z,70.70
2022-10-13T01:08:31.811Z,70.97
2022-10-13T01:11:13.155Z,71.10
2022-10-13T01:14:07.785Z,71.00
2022-10-13T01:16:52.994Z,71.26
2022-10-13T01:19:39.018Z,71.36
2022-10-13T01:22:18.369Z,71.29
2022-10-13T01:24:54.932Z,71.11
2022-10-13T01:27:48.177Z,71.28
2022-10-13T01:30:23.144Z,71.12
2022-10-13T01:33:12.360Z,71.10
2022-10-13T01:36:03.234Z,71.42
2022-10-13T01:38:46.461Z,71.29
2022-10-13T01:41:26.609Z,71.43
2022-10-13T01:44:16.652Z,71.68
2022-10-13T01:46:53.388Z,71.99
2022-10-13T01:49:43.670Z,71.81
2022-10-13T01:52:16.467Z,72.04
2022-10-13T01:54:56.646Z,71.73
2022-10-13T01:57:40.820Z,71.80
2022-10-13T02:00:19.933Z,72.21
2022-10-13T02:03:01.876Z,71.98
2022-10-13T02:06:05.560Z,72.35
2022-10-13T02:08:54.951Z,72.46
2022-10-13T02:11:24.994Z,72.27
2022-10-13T02:14:00.100Z,72.54
2022-10-13T02:16:31.861Z,72.33
2022-10-13T02:19:08.064Z,72.59
2022-10-13T02:21:36.166Z,72.83
2022-10-13T02:24:07.888Z,72.78
2022-10-13T02:26:38.317Z,72.81
2022-10-13T02:29:16.065Z,72.91
2022-10-13T02:31:46.411Z,73.03
2022-10-13T02:34:16.967Z,72.81
2022-10-13T02:36:47.180Z,73.19
2022-10-13T02:39:15.614Z,73.04
2022-10-13T02:41:42.647Z,73.22
2022-10-13T02:44:09.831Z,73.16
2022-10-13T02:46:41.817Z,73.12
2022-10-13T02:49:16.799Z,73.12
2022-10-13T02:51:43.751Z,73.26
2022-10-13T02:54:13.081Z,73.28
2022-10-13T02:56:40.771Z,73.48
2022-10-13T02:59:09.841Z,73.52
2022-10-13T03:01:42.215Z,73.37
2022-10-13T03:04:09.798Z,73.54
2022-10-13T03:06:38.185Z,73.81
2022-10-13T03:09:08.460Z,73.73
2022-10-13T03:11:35.521Z,73.64
2022-10-13T03:14:02.199Z,73.98
2022-10-13T03:16:29.785Z,74.21
2022-10-13T03:19:02.275Z,74.33
2022-10-13T03:21:29.015Z,74.40
2022-10-13T03:23:56.129Z,74.28
2022-10-13T03:30:15.127Z,75.35
2022-10-13T03:32:41.910Z,75.29
2022-10-13T03:35:09.011Z,75.40
2022-10-13T03:37:35.663Z,75.13
2022-10-13T03:40:02.353Z,75.15
2022-10-13T03:42:29.204Z,75.02
2022-10-13T03:44:56.672Z,75.28
2022-10-13T03:47:23.876Z,75.31
2022-10-13T03:49:53.341Z,75.20
2022-10-13T03:52:24.615Z,75.09
2022-10-13T03:54:53.170Z,75.25
2022-10-13T03:57:19.917Z,75.15
2022-10-13T03:59:58.450Z,74.98
2022-10-13T04:02:26.809Z,74.78
2022-10-13T04:04:54.504Z,75.05
2022-10-13T04:07:21.257Z,74.84
2022-10-13T04:09:47.940Z,74.80
2022-10-13T04:12:18.402Z,74.53
2022-10-13T04:14:47.555Z,74.64
2022-10-13T04:17:14.268Z,74.57
2022-10-13T04:19:40.945Z,74.37
2022-10-13T04:22:10.314Z,74.37
2022-10-13T04:24:47.634Z,74.52
2022-10-13T04:27:16.871Z,74.56
2022-10-13T04:29:43.677Z,74.35
2022-10-13T04:32:10.440Z,74.53
2022-10-13T04:34:37.249Z,74.49
2022-10-13T04:37:04.059Z,74.17
2022-10-13T04:39:30.721Z,74.18
2022-10-13T04:41:57.417Z,74.50
2022-10-13T04:44:24.100Z,74.29
2022-10-13T04:46:51.447Z,74.57
2022-10-13T04:49:18.615Z,74.60
2022-10-13T04:51:47.845Z,74.54
2022-10-13T04:54:14.917Z,74.74
2022-10-13T04:56:53.429Z,74.69
2022-10-13T04:59:22.743Z,75.14
2022-10-13T05:01:49.614Z,75.06
2022-10-13T05:04:21.378Z,75.05
2022-10-13T05:07:16.506Z,75.29
2022-10-13T05:09:42.755Z,75.08
2022-10-13T05:12:12.920Z,75.03
2022-10-13T05:14:39.917Z,75.17
2022-10-13T05:17:07.979Z,75.16
2022-10-13T05:19:35.089Z,75.09
2022-10-13T05:22:04.536Z,74.96
2022-10-13T05:24:36.815Z,75.25
2022-10-13T05:27:09.598Z,75.33
2022-10-13T05:29:37.265Z,75.25
2022-10-13T05:32:13.368Z,75.41
2022-10-13T05:34:50.229Z,75.31
2022-10-13T05:37:18.480Z,75.57
2022-10-13T05:39:49.004Z,75.35
2022-10-13T05:42:21.771Z,75.53
2022-10-13T05:44:48.934Z,75.55
2022-10-13T05:47:15.896Z,75.72
2022-10-13T05:49:45.514Z,75.65
2022-10-13T05:52:15.101Z,75.64
2022-10-13T05:54:47.911Z,75.38
2022-10-13T05:57:16.753Z,75.68
2022-10-13T05:59:49.349Z,75.87
2022-10-13T06:02:17.443Z,75.66
2022-10-13T06:04:46.914Z,75.88
2022-10-13T06:07:14.540Z,76.14
2022-10-13T06:09:41.916Z,76.18
2022-10-13T06:12:11.372Z,76.31
2022-10-13T06:14:38.434Z,76.11
2022-10-13T06:17:15.396Z,76.43
2022-10-13T06:19:45.515Z,76.50
2022-10-13T06:22:12.324Z,76.39
2022-10-13T06:24:39.842Z,76.38
2022-10-13T06:27:09.282Z,76.28
2022-10-13T06:29:39.210Z,76.33
2022-10-13T06:32:09.080Z,76.54
2022-10-13T06:34:36.076Z,76.33
2022-10-13T06:37:10.409Z,76.37
2022-10-13T06:39:39.746Z,76.52
2022-10-13T06:42:06.681Z,76.61
2022-10-13T06:44:37.841Z,76.41
2022-10-13T06:47:05.608Z,76.66
2022-10-13T06:49:32.389Z,76.64
2022-10-13T06:51:59.346Z,76.60
2022-10-13T06:54:26.075Z,76.71
2022-10-13T06:56:53.068Z,76.71
2022-10-13T06:59:20.306Z,76.97
2022-10-13T07:01:47.903Z,76.88
2022-10-13T07:04:15.891Z,76.98
2022-10-13T07:06:42.756Z,76.76
2022-10-13T07:09:09.693Z,76.78
2022-10-13T07:11:36.860Z,76.84
2022-10-13T07:14:04.039Z,76.41
2022-10-13T07:16:31.202Z,76.74
2022-10-13T07:19:04.161Z,76.61
2022-10-13T07:21:31.622Z,76.88
2022-10-13T07:24:02.248Z,77.02
2022-10-13T07:26:29.151Z,76.99
2022-10-13T07:28:57.557Z,76.82
2022-10-13T07:31:25.163Z,76.72
2022-10-13T07:33:55.086Z,76.67
2022-10-13T07:36:29.257Z,76.47
2022-10-13T07:38:56.266Z,76.56
2022-10-13T07:41:25.963Z,76.69
2022-10-13T07:43:59.949Z,76.55
2022-10-13T07:46:29.927Z,76.55
2022-10-13T07:48:56.824Z,76.60
2022-10-13T07:51:27.594Z,76.64
2022-10-13T07:53:54.465Z,76.35
2022-10-13T07:56:23.783Z,76.30
2022-10-13T07:58:53.505Z,76.29
2022-10-13T08:01:30.323Z,76.37
2022-10-13T08:04:15.863Z,76.29
2022-10-13T08:06:56.168Z,75.84
2022-10-13T08:09:23.088Z,75.79
2022-10-13T08:12:02.014Z,75.72
2022-10-13T08:17:25.498Z,75.39
2022-10-13T08:19:54.676Z,75.58
2022-10-13T08:22:53.709Z,75.16
2022-10-13T08:25:45.103Z,74.87
2022-10-13T08:29:31.757Z,74.72
2022-10-13T08:31:34.710Z,75.05
2022-10-13T08:34:04.930Z,74.59
2022-10-13T08:36:31.831Z,74.84
2022-10-13T08:38:58.517Z,74.60
2022-10-13T08:41:44.241Z,74.40
2022-10-13T08:45:16.177Z,74.69
2022-10-13T08:47:44.887Z,74.42
2022-10-13T08:50:15.659Z,74.88
2022-10-13T08:52:58.192Z,74.86
2022-10-13T08:55:36.550Z,74.76
2022-10-13T08:58:13.672Z,74.81
2022-10-13T09:00:42.544Z,75.11
2022-10-13T09:03:31.298Z,74.82
2022-10-13T09:06:31.859Z,74.59
2022-10-13T09:09:05.850Z,74.55
2022-10-13T09:12:01.613Z,74.20
2022-10-13T09:14:40.332Z,74.12
2022-10-13T09:17:29.615Z,73.66
2022-10-13T09:20:16.057Z,73.65
2022-10-13T09:22:42.980Z,73.22
2022-10-13T09:25:18.817Z,73.17
2022-10-13T09:27:53.058Z,73.07
2022-10-13T09:30:35.293Z,73.17
2022-10-13T09:33:09.671Z,72.98
2022-10-13T09:35:40.162Z,72.91
2022-10-13T09:38:11.668Z,72.50
2022-10-13T09:40:40.902Z,72.61
2022-10-13T09:43:33.427Z,72.22
2022-10-13T09:46:09.120Z,72.05
2022-10-13T09:48:37.242Z,72.11
2022-10-13T09:51:39.243Z,72.05
2022-10-13T09:54:37.249Z,71.78
2022-10-13T09:57:12.269Z,71.84
2022-10-13T09:59:43.332Z,71.48
2022-10-13T10:02:19.484Z,71.83
2022-10-13T10:04:49.424Z,71.72
2022-10-13T10:07:21.387Z,71.64
2022-10-13T10:09:52.085Z,71.67
2022-10-13T10:12:26.955Z,71.66
2022-10-13T10:14:54.661Z,71.78
2022-10-13T10:18:14.254Z,71.69
2022-10-13T10:20:42.806Z,71.99
2022-10-13T10:23:29.674Z,71.77
2022-10-13T10:26:03.360Z,71.75
2022-10-13T10:29:24.454Z,71.96
2022-10-13T10:31:57.416Z,72.19
2022-10-13T10:34:58.340Z,72.04
2022-10-13T10:37:45.111Z,71.97
2022-10-13T10:40:34.765Z,71.58
2022-10-13T10:43:47.559Z,71.41
2022-10-13T10:46:23.960Z,71.17
2022-10-13T10:48:55.760Z,71.09
2022-10-13T10:51:25.492Z,71.08
2022-10-13T10:54:13.890Z,70.94
2022-10-13T10:56:45.862Z,70.71
2022-10-13T10:59:43.337Z,70.14
2022-10-13T11:02:26.482Z,69.92
2022-10-13T11:04:53.754Z,69.78
2022-10-13T11:07:24.791Z,69.17
2022-10-13T11:09:56.865Z,69.26
2022-10-13T11:12:24.349Z,68.79
2022-10-13T11:14:54.114Z,68.46
2022-10-13T11:17:32.638Z,68.33
2022-10-13T11:20:23.881Z,68.57
2022-10-13T11:23:00.161Z,68.56
2022-10-13T11:25:46.434Z,68.19
2022-10-13T11:28:22.562Z,68.14
2022-10-13T11:30:50.837Z,68.48
2022-10-13T11:33:36.919Z,68.51
2022-10-13T11:36:36.280Z,68.48
2022-10-13T11:39:18.519Z,68.74
2022-10-13T11:42:03.877Z,68.27
2022-10-13T11:44:58.520Z,68.64
2022-10-13T11:48:26.702Z,68.19
2022-10-13T11:51:37.849Z,68.23
2022-10-13T11:54:38.629Z,68.28
2022-10-13T11:57:19.346Z,67.90
2022-10-13T11:59:46.833Z,67.63
2022-10-13T12:02:19.006Z,68.11
2022-10-13T12:05:00.482Z,67.98
2022-10-13T12:07:32.433Z,67.38
2022-10-13T12:09:59.209Z,67.04
2022-10-13T12:12:42.782Z,67.24
2022-10-13T12:15:45.081Z,67.22
2022-10-13T12:18:22.170Z,67.34
2022-10-13T12:21:15.392Z,66.98
2022-10-13T12:23:44.712Z,66.73
2022-10-13T12:26:16.423Z,66.77
2022-10-13T12:28:49.322Z,66.20
2022-10-13T12:31:22.618Z,66.60
2022-10-13T12:33:57.286Z,66.65
2022-10-13T12:36:31.046Z,66.86
2022-10-13T12:39:17.020Z,67.35
2022-10-13T12:41:45.533Z,67.48
2022-10-13T12:44:20.308Z,67.08
2022-10-13T12:46:56.161Z,66.91
2022-10-13T12:49:35.844Z,67.27
2022-10-13T12:52:25.038Z,66.92
2022-10-13T12:54:56.499Z,67.24
2022-10-13T12:57:39.219Z,67.13
2022-10-13T13:00:27.057Z,67.39
2022-10-13T13:05:50.898Z,67.14
2022-10-13T13:08:27.248Z,67.46
2022-10-13T13:10:55.501Z,67.21
2022-10-13T13:13:23.807Z,67.13
2022-10-13T13:15:51.012Z,67.12
2022-10-13T13:18:26.723Z,66.86
2022-10-13T13:20:54.108Z,67.27
2022-10-13T13:23:22.012Z,67.00
2022-10-13T13:26:15.591Z,67.03
2022-10-13T13:28:46.559Z,67.08
2022-10-13T13:31:14.379Z,66.93
2022-10-13T13:33:41.120Z,66.84
2022-10-13T13:36:23.456Z,66.97
2022-10-13T13:38:54.714Z,66.92
2022-10-13T13:41:21.714Z,66.84
2022-10-13T13:43:48.640Z,66.75
2022-10-13T13:46:21.476Z,66.98
2022-10-13T13:48:48.295Z,66.73
2022-10-13T13:51:15.598Z,66.98
2022-10-13T13:53:44.140Z,66.65
2022-10-13T13:56:17.765Z,66.64
2022-10-13T13:58:44.732Z,66.08
2022-10-13T14:01:11.997Z,65.91
2022-10-13T14:03:38.801Z,65.82
2022-10-13T14:06:07.712Z,65.65
2022-10-13T14:08:35.920Z,65.62
2022-10-13T14:11:06.306Z,65.18
2022-10-13T14:13:33.908Z,65.33
2022-10-13T14:16:01.660Z,65.19
2022-10-13T14:18:28.790Z,64.72
2022-10-13T14:20:55.505Z,63.95
2022-10-13T14:23:22.222Z,63.29
2022-10-13T14:25:48.936Z,62.80
2022-10-13T14:28:18.490Z,61.84
2022-10-13T14:30:45.427Z,61.25
2022-10-13T14:33:12.309Z,60.56
2022-10-13T14:35:39.041Z,60.66
2022-10-13T14:38:06.111Z,60.94
2022-10-13T14:40:33.903Z,60.91
2022-10-13T14:43:00.873Z,60.57
2022-10-13T14:45:28.013Z,60.19
2022-10-13T14:47:54.766Z,60.47
2022-10-13T14:50:21.526Z,60.37
2022-10-13T14:52:55.259Z,60.41
2022-10-13T14:55:22.426Z,60.53
2022-10-13T14:57:49.181Z,60.35
2022-10-13T15:00:16.453Z,60.38
2022-10-13T15:02:43.185Z,59.85
2022-10-13T15:05:09.993Z,59.69
2022-10-13T15:07:40.846Z,59.43
2022-10-13T15:10:08.506Z,59.00
2022-10-13T15:12:35.261Z,58.57
2022-10-13T15:15:02.257Z,58.38
2022-10-13T15:17:30.842Z,58.57
2022-10-13T15:19:57.509Z,58.65
2022-10-13T15:22:24.534Z,58.88
2022-10-13T15:24:51.662Z,59.30
2022-10-13T15:27:22.953Z,59.78
2022-10-13T15:29:49.843Z,60.36
2022-10-13T15:32:18.963Z,61.01
2022-10-13T15:34:54.701Z,61.40
2022-10-13T15:37:21.465Z,61.67
2022-10-13T15:39:50.986Z,62.33
2022-10-13T15:42:21.926Z,62.99
2022-10-13T15:47:40.325Z,64.11
2022-10-13T15:50:10.409Z,64.70
2022-10-13T15:52:41.474Z,64.75
2022-10-13T15:55:11.272Z,65.49
2022-10-13T15:57:38.633Z,65.89
2022-10-13T16:00:07.572Z,66.18
2022-10-13T16:02:40.479Z,66.62
2022-10-13T16:05:08.929Z,66.72
2022-10-13T16:07:35.811Z,67.06
2022-10-13T16:10:03.029Z,67.42
2022-10-13T16:12:29.787Z,67.37
2022-10-13T16:14:56.665Z,67.61
2022-10-13T16:17:23.354Z,67.80
2022-10-13T16:19:50.091Z,67.90
2022-10-13T16:22:16.762Z,68.46
2022-10-13T16:24:58.227Z,68.71
2022-10-13T16:27:27.578Z,68.83
2022-10-13T16:29:54.343Z,68.95
2022-10-13T16:32:22.513Z,68.91
2022-10-13T16:34:55.115Z,68.76
2022-10-13T16:37:23.173Z,68.95
2022-10-13T16:48:58.799Z,70.30
2022-10-13T16:52:53.117Z,70.30
2022-10-13T16:55:49.263Z,70.78
2022-10-13T16:58:16.941Z,70.71
2022-10-13T17:00:43.936Z,70.63
2022-10-13T17:03:13.538Z,70.87
2022-10-13T17:06:51.701Z,70.95
2022-10-13T17:08:44.715Z,70.61
2022-10-13T17:14:26.163Z,71.12
2022-10-13T17:17:19.407Z,71.26
2022-10-13T17:19:50.474Z,71.36
2022-10-13T17:26:16.860Z,71.93
2022-10-13T17:28:47.480Z,72.08
2022-10-13T17:31:20.623Z,71.88
2022-10-13T17:33:51.353Z,72.33
2022-10-13T17:36:30.627Z,72.57
2022-10-13T17:39:12.865Z,72.74
2022-10-13T17:41:47.242Z,72.73
2022-10-13T17:44:16.329Z,72.96
2022-10-13T17:46:54.615Z,73.04
2022-10-13T17:49:41.514Z,73.24
2022-10-13T17:52:26.557Z,73.44
2022-10-13T17:54:59.129Z,73.56
2022-10-13T17:57:35.789Z,73.84
2022-10-13T18:00:14.894Z,73.99
2022-10-13T18:02:50.670Z,73.80
2022-10-13T18:05:30.852Z,74.52
2022-10-13T18:08:02.595Z,74.41
2022-10-13T18:11:03.487Z,74.41
2022-10-13T18:14:06.964Z,74.78
2022-10-13T18:18:13.124Z,74.83
2022-10-13T18:21:31.155Z,74.99
2022-10-13T18:24:38.079Z,74.87
2022-10-13T18:27:10.848Z,74.87
2022-10-13T18:29:55.285Z,74.90
2022-10-13T18:33:14.306Z,74.72
2022-10-13T18:38:34.996Z,74.94
2022-10-13T18:41:07.212Z,75.24
2022-10-13T18:43:42.977Z,75.18
2022-10-13T18:46:21.159Z,74.97
2022-10-13T18:49:09.232Z,75.32
2022-10-13T18:51:43.474Z,75.45
2022-10-13T18:54:11.387Z,75.38
2022-10-13T18:56:46.480Z,75.78
2022-10-13T18:59:21.567Z,75.70
2022-10-13T19:01:49.124Z,75.48
2022-10-13T19:04:32.962Z,75.61
2022-10-13T19:07:04.570Z,75.66
2022-10-13T19:09:36.980Z,76.00
2022-10-13T19:12:13.773Z,76.09
2022-10-13T19:15:39.922Z,76.20
2022-10-13T19:18:23.174Z,76.36
2022-10-13T19:21:08.539Z,76.16
2022-10-13T19:23:43.252Z,76.29
2022-10-13T19:26:30.231Z,76.44
2022-10-13T19:29:12.389Z,76.61
2022-10-13T19:31:50.290Z,76.16
2022-10-13T19:34:27.007Z,76.54
2022-10-13T19:36:59.553Z,76.41
2022-10-13T19:39:28.750Z,76.58
2022-10-13T19:42:18.334Z,76.60
2022-10-13T19:44:55.520Z,76.62
2022-10-13T19:47:52.255Z,76.67
2022-10-13T19:50:59.882Z,76.83
2022-10-13T19:54:06.104Z,76.68
2022-10-13T19:56:50.360Z,76.41
2022-10-13T19:59:22.697Z,77.06
2022-10-13T20:01:57.041Z,76.97
2022-10-13T20:04:24.355Z,77.06
2022-10-13T20:06:57.682Z,77.16
2022-10-13T20:09:33.319Z,77.13
2022-10-13T20:12:07.008Z,77.32
2022-10-13T20:14:55.366Z,76.78
2022-10-13T20:17:29.042Z,76.94
2022-10-13T20:20:01.117Z,76.83
2022-10-13T20:22:35.041Z,77.20
2022-10-13T20:25:16.328Z,77.41
2022-10-13T20:27:47.205Z,77.06
2022-10-13T20:30:14.650Z,77.40
2022-10-13T20:32:43.133Z,77.23
2022-10-13T20:35:12.548Z,77.27
2022-10-13T20:37:42.394Z,77.08
2022-10-13T20:40:50.639Z,77.05
2022-10-13T20:43:30.724Z,77.09
2022-10-13T20:46:13.317Z,77.01
2022-10-13T20:49:10.021Z,77.23
2022-10-13T20:51:36.707Z,77.55
2022-10-13T20:54:07.554Z,77.60
2022-10-13T20:56:39.456Z,77.44
2022-10-13T20:59:10.345Z,77.78
2022-10-13T21:01:50.192Z,77.91
2022-10-13T21:04:50.644Z,77.92
2022-10-13T21:07:18.196Z,77.62
2022-10-13T21:09:53.620Z,77.54
2022-10-13T21:12:27.132Z,78.05
2022-10-13T21:15:05.270Z,77.47
2022-10-13T21:17:34.530Z,77.49
2022-10-13T21:20:30.060Z,77.52
2022-10-13T21:23:07.641Z,77.62
2022-10-13T21:25:38.801Z,77.31
2022-10-13T21:28:16.361Z,77.11
2022-10-13T21:30:47.400Z,77.17
2022-10-13T21:33:16.758Z,76.97
2022-10-13T21:35:46.245Z,77.12
2022-10-13T21:38:15.604Z,77.22
2022-10-13T21:40:49.382Z,77.22
2022-10-13T21:43:20.387Z,77.69
2022-10-13T21:45:57.708Z,77.90
2022-10-13T21:48:47.262Z,77.54
2022-10-13T21:51:21.857Z,77.24
2022-10-13T21:53:55.149Z,77.51
2022-10-13T21:56:23.733Z,78.01
2022-10-13T21:58:50.850Z,78.07
2022-10-13T22:01:18.762Z,78.00
2022-10-13T22:03:48.994Z,77.98
2022-10-13T22:06:23.523Z,78.07
2022-10-13T22:08:53.831Z,78.17
2022-10-13T22:11:30.608Z,78.16
2022-10-13T22:14:14.653Z,78.51
2022-10-13T22:16:46.949Z,78.65
2022-10-13T22:19:16.920Z,78.15
2022-10-13T22:21:47.869Z,78.40
2022-10-13T22:24:20.034Z,78.37
2022-10-13T22:26:52.938Z,78.42
2022-10-13T22:29:25.206Z,78.45
2022-10-13T22:32:04.550Z,78.54
2022-10-13T22:34:33.008Z,78.61
2022-10-13T22:37:02.546Z,78.61
2022-10-13T22:39:33.672Z,78.61
2022-10-13T22:42:08.563Z,78.56
2022-10-13T22:44:35.589Z,78.67
2022-10-13T22:47:02.582Z,78.98
2022-10-13T22:49:29.758Z,79.12
2022-10-13T22:51:59.110Z,78.84
2022-10-13T22:54:28.553Z,78.69
2022-10-13T22:56:56.014Z,78.92
2022-10-13T22:59:44.239Z,78.77
2022-10-13T23:02:14.187Z,78.59
2022-10-13T23:04:42.674Z,78.64
2022-10-13T23:07:12.761Z,78.73
2022-10-13T23:09:42.849Z,78.42
2022-10-13T23:12:10.072Z,78.68
2022-10-13T23:14:37.288Z,78.97
2022-10-13T23:17:05.094Z,78.86
2022-10-13T23:19:32.084Z,78.93
2022-10-13T23:21:59.156Z,78.67
2022-10-13T23:24:28.483Z,78.94
2022-10-13T23:27:00.527Z,79.02
2022-10-13T23:29:28.081Z,79.46
2022-10-13T23:31:55.121Z,79.38
2022-10-13T23:34:22.076Z,79.52
2022-10-13T23:36:49.007Z,79.50
2022-10-13T23:39:17.919Z,79.50
2022-10-13T23:41:45.039Z,79.28
2022-10-13T23:44:13.191Z,79.59
2022-10-13T23:46:42.490Z,79.62
2022-10-13T23:49:13.000Z,79.83
2022-10-13T23:51:42.964Z,79.98
2022-10-13T23:54:10.149Z,79.87
2022-10-13T23:56:38.390Z,79.96
2022-10-13T23:59:05.978Z,80.13
